This is the latest recevied packets stored in our database for station/object EDJA. If no packets are shown the sender has not sent any packets the latest 24 hours.

If you compare the raw packets with similar data from other websites it may differ (especially the path), the reason is that we are not collecting packets from the same APRS-IS servers. Each APRS-IS server performes duplicate filtering, and which packet that is considered to be a duplicate may differ depending on which APRS-IS server you receive your data from.

1624532759: DK6PX>APRS,TCPIP*,qAC,T2GYOR:;EDJA *201218z4759.11N/01013.77E^ EDJA 241050Z 32006KT 290V350 9999 FEW025 SCT032 18/13 Q1019

1624536359: DK6PX>APRS,TCPIP*,qAC,T2NORWAY:;EDJA *201218z4759.11N/01013.77E^ EDJA 241150Z 22007KT 180V260 9999 FEW021 21/14 Q1019

1624539959: DK6PX>APRS,TCPIP*,qAC,T2SWEDEN:;EDJA *201218z4759.11N/01013.77E^ EDJA 241250Z 24007KT 190V310 9999 SCT031 21/14 Q1018

1624543559: DK6PX>APRS,TCPIP*,qAC,T2CSNGRAD:;EDJA *201218z4759.11N/01013.77E^ EDJA 241350Z VRB03KT CAVOK 22/13 Q1018

1624547159: DK6PX>APRS,TCPIP*,qAC,T2MAZURY:;EDJA *201218z4759.11N/01013.77E^ EDJA 241450Z 27007KT 240V310 9999 FEW045 22/13 Q1018

1624550759: DK6PX>APRS,TCPIP*,qAC,T2POLC:;EDJA *201218z4759.11N/01013.77E^ EDJA 241550Z 28010KT 9999 SCT040 BKN057 21/14 Q1018

1624554359: DK6PX>APRS,TCPIP*,qAC,T2UK:;EDJA *201218z4759.11N/01013.77E^ EDJA 241650Z 31005KT 260V350 9999 FEW036 21/13 Q1017

1624557959: DK6PX>APRS,TCPIP*,qAC,T2SP:;EDJA *201218z4759.11N/01013.77E^ EDJA 241750Z 27009KT 9999 FEW042TCU 20/12 Q1018

1624561559: DK6PX>APRS,TCPIP*,qAC,T2LONDON:;EDJA *201218z4759.11N/01013.77E^ EDJA 241850Z 24012KT 9999 FEW018TCU SCT057 19/13 Q1019

1624565161: DK6PX>APRS,TCPIP*,qAC,T2CSNGRAD:;EDJA *201218z4759.11N/01013.77E^ EDJA 241950Z 22011KT 8000 -SHRA FEW008TCU BKN043 15/13 Q1020

1624568758: DK6PX>APRS,TCPIP*,qAC,T2POLAND:;EDJA *201218z4759.11N/01013.77E^ EDJA 242050Z AUTO 22011KT 9999 // FEW078/// BKN094/// 14/13 Q1020

1624572358: DK6PX>APRS,TCPIP*,qAC,T2ROMANIA:;EDJA *201218z4759.11N/01013.77E^ EDJA 242150Z AUTO 23008KT 9999 // FEW009/// OVC076/// 14/13 Q1020

1624575958: DK6PX>APRS,TCPIP*,qAC,T2HUN:;EDJA *201218z4759.11N/01013.77E^ EDJA 242250Z AUTO 24010KT 9999 // FEW054/// OVC086/// 14/12 Q1021

1624579560: DK6PX>APRS,TCPIP*,qAC,T2FRA:;EDJA *201218z4759.11N/01013.77E^ EDJA 242350Z AUTO 23010KT 9999 // SCT013/// BKN096/// OVC120/// 13/12 Q1021

1624583159: DK6PX>APRS,TCPIP*,qAC,T2STRAS:;EDJA *201218z4759.11N/01013.77E^ EDJA 250050Z AUTO 22008KT 9999 // SCT011/// SCT097/// OVC110/// 13/12 Q1020

1624586758: DK6PX>APRS,TCPIP*,qAC,T2LEIPZIG:;EDJA *201218z4759.11N/01013.77E^ EDJA 250150Z AUTO 22007KT 9999 // SCT011/// OVC023/// 13/12 Q1020

1624590358: DK6PX>APRS,TCPIP*,qAC,T2BELGIUM:;EDJA *201218z4759.11N/01013.77E^ EDJA 250250Z AUTO 21008KT 9999 // FEW010/// BKN030/// OVC034/// 13/12 Q1020

1624593959: DK6PX>APRS,TCPIP*,qAC,T2FFL:;EDJA *201218z4759.11N/01013.77E^ EDJA 250350Z 22009KT 9999 FEW008 OVC054 13/12 Q1020

1624597558: DK6PX>APRS,TCPIP*,qAC,T2NUERNBG:;EDJA *201218z4759.11N/01013.77E^ EDJA 250450Z 22009KT 9999 FEW011 BKN019 OVC053 13/12 Q1020

1624601158: DK6PX>APRS,TCPIP*,qAC,T2FRA:;EDJA *201218z4759.11N/01013.77E^ EDJA 250550Z 23010KT 9999 OVC012 14/12 Q1020

1624604758: DK6PX>APRS,TCPIP*,qAC,T2NUERNBG:;EDJA *201218z4759.11N/01013.77E^ EDJA 250650Z 24013KT 9999 BKN011 OVC017 14/12 Q1020

1624608359: DK6PX>APRS,TCPIP*,qAC,T2GYOR:;EDJA *201218z4759.11N/01013.77E^ EDJA 250750Z 24013KT 9999 OVC012 15/12 Q1020

1624611958: DK6PX>APRS,TCPIP*,qAC,T2KA:;EDJA *201218z4759.11N/01013.77E^ EDJA 250850Z 26012KT 9999 SCT014 SCT021 BKN034 16/12 Q1020

1624615559: DK6PX>APRS,TCPIP*,qAC,T2SWEDEN:;EDJA *201218z4759.11N/01013.77E^ EDJA 250950Z 26011KT 230V290 9999 SCT017 BKN025 BKN040 16/12 Q1020

Initial position
Current position
Ruler